Time;durP1;ratioP1;P1;durP2;ratioP2;P2;SDS_P1;SDS_P2;PMS_P1;PMS_P2;Temp;Humidity;BMP_temperature;BMP_pressure;BME280_temperature;BME280_humidity;BME280_pressure;Samples;Min_cycle;Max_cycle;Signal;HPM_P1;HPM_P2
2022/02/03 00:04:45;;;;;;;15.07;10.07;;;;;;;1.12;67.15;92627.44;5028882;28;20028;-35
2022/02/03 00:07:15;;;;;;;17.38;11.05;;;;;;;1.18;66.53;92639.00;5027745;28;20025;-35
2022/02/03 00:25:45;;;;;;;14.35;8.55;;;;;;;1.15;68.14;92636.56;5014606;28;20065;-36
2022/02/03 00:28:48;;;;;;;17.08;9.52;;;;;;;1.16;67.90;92643.47;5048298;28;20056;-36
2022/02/03 00:31:12;;;;;;;15.95;8.90;;;;;;;1.21;67.71;92637.25;5046446;28;20045;-36
2022/02/03 00:34:29;;;;;;;13.75;8.95;;;;;;;1.11;67.60;92647.69;5032841;28;20458;-35
2022/02/03 00:36:40;;;;;;;15.00;8.63;;;;;;;1.05;68.05;92641.59;5027105;28;20082;-36
2022/02/03 00:50:02;;;;;;;16.40;9.10;;;;;;;1.23;67.72;92657.25;5029670;28;20096;-35
2022/02/03 00:52:33;;;;;;;12.93;8.27;;;;;;;1.23;68.66;92651.81;5029791;28;20033;-35
2022/02/03 00:54:58;;;;;;;17.80;8.95;;;;;;;1.17;68.31;92653.81;5029826;28;20037;-35
2022/02/03 00:57:51;;;;;;;16.23;9.70;;;;;;;1.18;67.87;92652.59;5029251;28;20510;-35
2022/02/03 01:00:18;;;;;;;24.70;13.55;;;;;;;1.06;68.48;92650.47;5029705;28;20037;-36
2022/02/03 01:03:05;;;;;;;20.15;10.65;;;;;;;1.12;68.73;92645.72;5029618;28;20067;-36
2022/02/03 01:05:30;;;;;;;15.68;9.27;;;;;;;0.98;68.53;92644.09;5011991;28;20391;-37
2022/02/03 01:08:02;;;;;;;24.77;9.10;;;;;;;1.10;68.69;92657.13;5029350;28;20032;-37
2022/02/03 01:10:32;;;;;;;19.08;9.82;;;;;;;0.97;68.97;92656.22;5029683;28;20036;-35
2022/02/03 01:13:13;;;;;;;16.50;8.60;;;;;;;0.93;69.12;92661.22;5012117;28;20042;-35
2022/02/03 01:15:47;;;;;;;19.45;9.60;;;;;;;1.01;69.46;92664.84;5029254;28;20034;-35
2022/02/03 01:53:49;;;;;;;11.93;7.72;;;;;;;0.84;71.59;92662.25;5032108;28;20041;-34
2022/02/03 01:56:18;;;;;;;16.45;9.52;;;;;;;0.96;71.48;92682.66;5032427;28;20029;-35
2022/02/03 01:58:47;;;;;;;14.77;8.13;;;;;;;1.10;70.86;92676.16;5031982;28;20482;-34
2022/02/03 02:01:14;;;;;;;22.25;13.23;;;;;;;1.06;71.33;92675.66;5032480;28;20507;-34
2022/02/03 02:03:43;;;;;;;35.42;19.33;;;;;;;1.10;72.37;92676.16;5032235;28;20037;-36
2022/02/03 02:06:36;;;;;;;32.97;16.73;;;;;;;1.13;71.69;92679.81;5014839;28;20529;-35
2022/02/03 02:09:06;;;;;;;31.58;16.08;;;;;;;1.12;72.64;92676.38;5030714;28;20033;-35
2022/02/03 02:12:04;;;;;;;40.38;18.30;;;;;;;1.05;71.66;92690.50;5040560;28;20060;-35
2022/02/03 02:36:54;;;;;;;15.30;11.68;;;;;;;1.06;73.52;92694.69;5052044;28;20029;-35
2022/02/03 02:39:51;;;;;;;15.02;9.18;;;;;;;1.17;75.50;92724.50;5031612;28;20060;-35
2022/02/03 02:45:05;;;;;;;10.95;6.72;;;;;;;1.28;74.73;92729.88;5031604;28;20068;-35
2022/02/03 02:47:45;;;;;;;10.80;7.03;;;;;;;1.27;75.01;92738.53;5031108;28;20483;-35
2022/02/03 02:50:16;;;;;;;12.32;7.15;;;;;;;1.28;74.87;92746.19;5031192;28;20029;-36
2022/02/03 02:52:52;;;;;;;9.65;7.38;;;;;;;1.24;74.74;92743.00;5031291;28;20044;-35
2022/02/03 03:01:51;;;;;;;9.98;6.35;;;;;;;1.09;74.68;92753.50;5035985;28;20170;-35
2022/02/03 03:36:31;;;;;;;16.02;8.20;;;;;;;1.18;74.35;92771.47;5050535;28;20028;-36
2022/02/03 03:38:57;;;;;;;24.70;12.80;;;;;;;1.30;73.35;92773.59;5032726;28;20052;-36
2022/02/03 03:41:23;;;;;;;28.40;13.65;;;;;;;1.16;74.11;92777.41;5050187;28;20021;-35
2022/02/03 03:44:00;;;;;;;14.07;8.27;;;;;;;1.12;74.92;92792.53;5031647;28;20017;-35
2022/02/03 03:46:30;;;;;;;17.80;10.77;;;;;;;1.08;74.69;92784.66;5050307;28;20438;-35
2022/02/03 03:49:10;;;;;;;21.42;12.32;;;;;;;1.08;74.81;92790.09;5032510;28;20163;-35
2022/02/03 03:51:47;;;;;;;10.90;7.35;;;;;;;1.02;74.50;92794.78;5032425;28;20025;-35
2022/02/03 03:54:25;;;;;;;12.38;8.52;;;;;;;1.02;74.51;92791.34;5050242;28;20120;-36
2022/02/03 03:57:10;;;;;;;15.90;7.60;;;;;;;1.04;75.21;92816.06;5050148;28;20043;-35
2022/02/03 04:57:39;;;;;;;10.18;6.95;;;;;;;0.92;75.12;92893.44;5042814;28;20043;-35
2022/02/03 05:03:04;;;;;;;10.70;7.40;;;;;;;1.01;74.31;92907.50;5052534;28;20102;-34
2022/02/03 05:06:39;;;;;;;16.83;10.38;;;;;;;1.16;73.93;92912.59;5053245;28;20103;-34
2022/02/03 05:11:48;;;;;;;10.95;7.70;;;;;;;1.02;73.71;92916.38;5052815;28;20686;-34
2022/02/03 05:17:55;;;;;;;8.95;5.72;;;;;;;1.00;73.96;92940.59;5052969;28;20087;-35
2022/02/03 05:44:03;;;;;;;20.02;10.32;;;;;;;1.13;73.20;92976.88;5032610;28;20036;-35
2022/02/03 06:05:22;;;;;;;12.55;7.20;;;;;;;1.15;73.07;93028.06;5030106;28;20064;-35
2022/02/03 06:07:59;;;;;;;14.82;9.55;;;;;;;1.10;73.35;93015.19;5031617;28;20029;-35
2022/02/03 06:13:28;;;;;;;11.57;7.95;;;;;;;1.28;72.36;93037.13;5031386;28;20048;-35
2022/02/03 06:24:06;;;;;;;16.42;9.55;;;;;;;1.19;72.87;93061.16;5030303;28;20026;-35
2022/02/03 06:29:19;;;;;;;13.18;7.43;;;;;;;1.19;73.17;93072.75;5031039;28;19927;-36
2022/02/03 06:31:46;;;;;;;12.15;7.28;;;;;;;1.16;72.75;93079.19;5031738;28;20025;-35
2022/02/03 06:34:12;;;;;;;12.27;7.13;;;;;;;1.18;72.78;93086.84;5031630;28;20022;-35
2022/02/03 06:36:39;;;;;;;6.72;5.82;;;;;;;1.25;72.64;93078.19;5031236;28;20025;-36
2022/02/03 06:39:15;;;;;;;7.53;5.53;;;;;;;1.36;72.70;93092.53;5031738;28;20075;-35
2022/02/03 06:41:40;;;;;;;10.93;5.38;;;;;;;1.47;71.65;93089.03;5031102;28;20025;-36
2022/02/03 06:44:06;;;;;;;21.42;11.05;;;;;;;1.40;71.43;93098.44;5031267;28;20029;-35
2022/02/03 06:46:32;;;;;;;13.50;7.97;;;;;;;1.42;71.61;93108.81;5031448;28;20033;-35
2022/02/03 06:49:10;;;;;;;15.30;9.10;;;;;;;1.29;70.81;93079.44;5031196;28;20526;-35
2022/02/03 06:51:40;;;;;;;10.02;6.70;;;;;;;1.50;71.12;93105.09;5031339;28;20056;-36
2022/02/03 06:54:15;;;;;;;9.27;6.40;;;;;;;1.48;71.47;93102.13;5031242;28;20091;-35
2022/02/03 06:56:49;;;;;;;8.82;5.95;;;;;;;1.54;70.38;93111.00;5037256;28;20025;-35
2022/02/03 06:59:17;;;;;;;15.43;8.13;;;;;;;1.45;70.99;93108.53;5050841;28;20021;-35
2022/02/03 07:01:44;;;;;;;7.68;6.03;;;;;;;1.46;71.09;93114.75;5044665;28;20096;-35
2022/02/03 07:04:18;;;;;;;9.73;5.45;;;;;;;1.61;71.03;93120.63;5030767;28;20021;-36
2022/02/03 07:06:44;;;;;;;9.35;6.78;;;;;;;1.45;70.31;93080.63;5031065;28;20092;-36
2022/02/03 07:09:10;;;;;;;6.65;5.13;;;;;;;1.67;69.62;93117.91;5030734;28;20506;-35
2022/02/03 07:11:38;;;;;;;11.25;5.40;;;;;;;1.58;69.22;93127.09;5029517;28;20152;-36
2022/02/03 07:14:05;;;;;;;7.75;5.18;;;;;;;1.42;69.72;93131.31;5030490;28;20053;-35
2022/02/03 07:16:34;;;;;;;7.90;5.75;;;;;;;1.30;70.46;93126.41;5030410;28;20021;-36
2022/02/03 07:18:59;;;;;;;14.27;7.30;;;;;;;1.36;69.73;93127.13;5030590;28;20025;-36
2022/02/03 07:21:25;;;;;;;11.52;7.53;;;;;;;1.34;69.85;93124.88;5030557;28;20029;-35
2022/02/03 07:23:50;;;;;;;11.25;7.07;;;;;;;1.36;69.90;93148.88;5030524;28;20029;-36
2022/02/03 07:26:15;;;;;;;11.05;6.78;;;;;;;1.33;70.45;93139.75;5030624;28;20080;-35
2022/02/03 07:28:41;;;;;;;9.23;5.25;;;;;;;1.25;69.82;93143.47;5044665;28;20094;-35
2022/02/03 07:31:07;;;;;;;7.53;4.13;;;;;;;1.27;69.51;93143.69;5048366;28;20414;-35
2022/02/03 07:33:33;;;;;;;10.13;4.32;;;;;;;1.30;69.80;93151.59;5048322;28;20039;-35
2022/02/03 07:35:59;;;;;;;5.55;4.35;;;;;;;1.26;69.53;93147.66;5048871;28;20021;-35
2022/02/03 07:38:24;;;;;;;6.07;3.92;;;;;;;1.24;69.46;93148.16;5048679;28;20033;-35
2022/02/03 07:40:50;;;;;;;11.30;6.28;;;;;;;1.18;70.13;93154.81;5047778;28;20115;-35
2022/02/03 07:43:16;;;;;;;10.35;6.13;;;;;;;1.20;70.11;93155.06;5048265;28;20017;-35
2022/02/03 07:45:42;;;;;;;13.80;5.55;;;;;;;1.16;69.85;93158.06;5046921;28;20050;-35
2022/02/03 07:48:07;;;;;;;26.85;13.48;;;;;;;1.11;70.29;93166.19;5048426;28;20486;-35
2022/02/03 07:50:33;;;;;;;17.35;9.82;;;;;;;1.06;70.29;93161.50;5048172;28;20058;-35
2022/02/03 07:52:58;;;;;;;6.15;4.75;;;;;;;1.04;69.81;93178.31;5047776;28;20033;-34
2022/02/03 07:55:24;;;;;;;5.78;4.78;;;;;;;1.03;70.24;93176.09;5047703;28;20029;-34
2022/02/03 07:57:51;;;;;;;9.45;5.53;;;;;;;1.04;70.97;93183.75;5041280;28;20090;-35
2022/02/03 08:00:18;;;;;;;10.45;6.85;;;;;;;1.06;70.40;93180.53;5045891;28;20024;-34
2022/02/03 08:02:44;;;;;;;9.52;5.80;;;;;;;1.06;70.35;93166.94;5045567;28;20035;-34
2022/02/03 08:05:12;;;;;;;11.73;5.50;;;;;;;1.19;70.83;93188.94;5045240;28;20028;-35
2022/02/03 08:07:47;;;;;;;8.23;4.55;;;;;;;1.20;69.72;93188.44;5045513;28;20052;-35
2022/02/03 08:10:26;;;;;;;9.98;6.10;;;;;;;1.27;70.03;93198.84;5045513;28;20028;-35
2022/02/03 08:12:52;;;;;;;9.02;5.72;;;;;;;1.29;70.25;93193.66;5045018;28;20114;-35
2022/02/03 08:15:17;;;;;;;9.50;6.38;;;;;;;1.42;69.65;93198.56;5045190;28;20029;-35
2022/02/03 08:17:43;;;;;;;6.40;4.22;;;;;;;1.33;69.19;93210.44;5045248;28;20078;-35
2022/02/03 08:20:14;;;;;;;8.35;5.65;;;;;;;1.44;69.59;93213.16;5045436;28;20082;-35
2022/02/03 08:22:50;;;;;;;14.27;7.30;;;;;;;1.58;68.49;93216.13;5045051;28;20025;-35
2022/02/03 08:25:21;;;;;;;13.45;9.38;;;;;;;1.71;68.73;93210.91;5045545;28;20028;-35
2022/02/03 08:30:25;;;;;;;12.25;7.35;;;;;;;2.22;67.53;93216.47;5029479;28;20036;-35
2022/02/03 08:32:57;;;;;;;13.05;6.88;;;;;;;2.48;66.50;93221.56;5029235;28;20514;-35
2022/02/03 08:35:35;;;;;;;17.70;10.57;;;;;;;2.61;66.12;93224.50;5031583;28;20034;-35
2022/02/03 08:38:14;;;;;;;10.27;5.72;;;;;;;2.85;63.81;93224.63;5031856;28;20457;-35
2022/02/03 08:41:02;;;;;;;5.38;4.80;;;;;;;2.86;64.09;93234.25;5031400;28;20029;-35
2022/02/03 08:43:28;;;;;;;6.10;4.50;;;;;;;2.93;63.68;93241.91;5030302;28;20034;-34
2022/02/03 08:45:54;;;;;;;7.00;4.25;;;;;;;2.94;62.78;93254.31;5031587;28;20028;-35
2022/02/03 08:48:20;;;;;;;12.95;7.47;;;;;;;2.91;63.60;93252.59;5031568;28;20025;-35
2022/02/03 08:50:45;;;;;;;12.77;8.02;;;;;;;2.74;64.17;93240.28;5031675;28;20017;-35
2022/02/03 08:53:17;;;;;;;13.13;8.23;;;;;;;2.71;64.84;93263.09;5031909;28;20410;-35
2022/02/03 09:59:20;;;;;;;10.93;7.00;;;;;;;6.59;51.43;93292.25;5032408;28;20134;-36
2022/02/03 10:01:53;;;;;;;11.20;8.18;;;;;;;6.50;51.43;93309.13;5032390;28;20100;-36
2022/02/03 10:04:48;;;;;;;11.75;8.95;;;;;;;6.72;51.29;93305.97;5032167;28;20021;-36
2022/02/03 10:07:20;;;;;;;14.27;8.32;;;;;;;6.67;51.25;93304.81;5032286;28;20025;-36
2022/02/03 10:09:48;;;;;;;10.95;6.53;;;;;;;6.25;51.97;93305.81;5032341;28;20029;-36
2022/02/03 10:12:13;;;;;;;14.43;8.65;;;;;;;6.16;52.08;93313.69;5031683;28;20041;-36
2022/02/03 10:14:45;;;;;;;11.48;6.68;;;;;;;6.24;52.99;93309.09;5031713;28;20029;-36
2022/02/03 10:17:11;;;;;;;11.05;6.63;;;;;;;6.11;51.99;93318.00;5031922;28;20104;-36
2022/02/03 10:19:40;;;;;;;10.60;6.03;;;;;;;5.85;52.55;93310.44;5031989;28;20060;-36
2022/02/03 10:22:17;;;;;;;7.80;5.88;;;;;;;5.50;53.19;93324.38;5032101;28;20030;-36
2022/02/03 10:24:47;;;;;;;9.52;6.03;;;;;;;5.35;54.15;93333.03;5031605;28;20029;-36
2022/02/03 10:27:29;;;;;;;9.40;7.05;;;;;;;5.31;54.93;93329.84;5031618;28;20032;-36
2022/02/03 10:30:13;;;;;;;13.63;9.27;;;;;;;5.30;55.46;93335.84;5031700;28;20056;-36
2022/02/03 10:32:43;;;;;;;12.85;7.53;;;;;;;4.65;56.41;93306.03;5031469;28;20034;-36
2022/02/03 10:35:28;;;;;;;7.05;5.50;;;;;;;4.77;56.47;93329.25;5046907;28;20029;-36
2022/02/03 10:52:04;;;;;;;9.10;5.40;;;;;;;4.55;57.44;93326.75;5050685;28;19915;-36
2022/02/03 11:05:19;;;;;;;9.95;6.38;;;;;;;4.88;56.88;93328.41;5030974;28;20491;-36
2022/02/03 11:07:53;;;;;;;8.00;4.28;;;;;;;4.95;55.78;93327.81;5031196;28;20408;-36
2022/02/03 11:10:29;;;;;;;13.90;7.35;;;;;;;4.76;57.14;93324.31;5030163;28;20031;-36
2022/02/03 11:12:55;;;;;;;14.45;8.23;;;;;;;4.78;57.52;93333.50;5031108;28;20041;-36
2022/02/03 11:15:25;;;;;;;17.48;10.25;;;;;;;4.77;55.97;93325.78;5030956;28;20064;-36
2022/02/03 11:17:54;;;;;;;20.85;11.90;;;;;;;4.87;56.43;93329.66;5030683;28;20026;-36
2022/02/03 11:20:22;;;;;;;10.38;6.32;;;;;;;4.92;55.56;93326.09;5030680;28;20025;-36
2022/02/03 11:25:41;;;;;;;9.32;6.57;;;;;;;5.00;55.28;93318.81;5030666;28;20022;-36
2022/02/03 11:31:27;;;;;;;6.07;4.28;;;;;;;7.14;49.98;93324.13;5020286;28;20526;-36
2022/02/03 12:16:03;;;;;;;9.68;6.68;;;;;;;6.65;48.52;93332.03;5044320;28;20033;-37
2022/02/03 12:21:04;;;;;;;11.38;7.43;;;;;;;6.04;51.66;93326.84;5049732;28;20086;-36
2022/02/03 12:26:16;;;;;;;6.80;3.90;;;;;;;6.01;51.43;93317.69;5046831;28;20068;-37
2022/02/03 12:28:52;;;;;;;7.03;4.50;;;;;;;6.02;51.32;93321.16;5029916;28;20024;-36
2022/02/03 12:39:21;;;;;;;9.73;5.25;;;;;;;6.22;51.83;93315.09;4968697;28;20125;-36
2022/02/03 12:42:07;;;;;;;7.47;4.63;;;;;;;6.32;51.68;93320.91;5019323;28;20103;-36
2022/02/03 12:44:37;;;;;;;8.32;6.10;;;;;;;6.53;51.08;93324.53;5029621;28;20026;-36
2022/02/03 12:47:05;;;;;;;18.00;13.55;;;;;;;6.57;50.91;93322.22;5029541;28;20021;-36
2022/02/03 12:49:32;;;;;;;6.18;4.82;;;;;;;6.95;50.78;93333.75;5029677;28;20029;-36
2022/02/03 12:51:58;;;;;;;9.63;5.07;;;;;;;7.22;48.92;93310.50;5047841;28;20037;-36
2022/02/03 12:54:23;;;;;;;11.15;6.20;;;;;;;7.55;48.20;93338.00;5049623;28;20565;-37
2022/02/03 12:56:49;;;;;;;10.85;6.78;;;;;;;7.36;48.42;93333.94;5042082;28;20096;-36
2022/02/03 12:59:17;;;;;;;11.55;7.70;;;;;;;7.05;48.70;93326.56;5029771;28;20022;-37
2022/02/03 13:01:44;;;;;;;5.15;4.07;;;;;;;6.96;48.87;93326.97;5029350;28;20113;-37
2022/02/03 13:04:13;;;;;;;11.30;7.82;;;;;;;6.85;49.33;93341.66;5029903;28;20106;-37
2022/02/03 13:06:43;;;;;;;20.88;15.43;;;;;;;6.89;49.12;93339.31;5029140;28;20033;-36
2022/02/03 13:09:10;;;;;;;8.88;6.28;;;;;;;7.10;49.12;93336.69;5029565;28;20034;-36
2022/02/03 13:11:52;;;;;;;7.45;4.53;;;;;;;6.99;48.58;93354.13;5029211;28;20053;-36
2022/02/03 13:17:12;;;;;;;17.40;9.70;;;;;;;6.52;50.53;93342.28;5045716;28;20033;-36
2022/02/03 13:27:28;;;;;;;9.20;6.20;;;;;;;5.23;54.37;93375.50;5041832;28;20021;-36
2022/02/03 13:30:14;;;;;;;10.65;6.05;;;;;;;4.78;55.12;93381.97;5017287;28;20029;-36
2022/02/03 13:32:47;;;;;;;5.03;4.00;;;;;;;4.50;56.86;93382.25;5032944;28;20022;-36
2022/02/03 13:35:32;;;;;;;6.95;4.95;;;;;;;4.27;57.97;93378.22;5032867;28;20048;-36
2022/02/03 13:38:04;;;;;;;9.48;6.57;;;;;;;4.11;58.27;93385.31;5032943;28;20039;-36
2022/02/03 13:40:30;;;;;;;5.90;4.70;;;;;;;3.87;59.38;93382.50;5032574;28;20029;-36
2022/02/03 13:42:59;;;;;;;12.60;6.78;;;;;;;3.84;60.56;93381.53;5032359;28;20025;-36
2022/02/03 13:45:24;;;;;;;8.20;4.88;;;;;;;3.85;60.01;93387.72;5032442;28;20487;-36
2022/02/03 13:47:51;;;;;;;5.22;3.95;;;;;;;3.93;59.92;93385.19;5032422;28;20036;-35
2022/02/03 13:50:24;;;;;;;10.23;6.57;;;;;;;3.87;60.15;93385.22;5032737;28;20036;-36
2022/02/03 13:53:09;;;;;;;10.52;6.55;;;;;;;3.99;59.51;93389.34;5039337;28;20047;-36
2022/02/03 14:21:58;;;;;;;4.05;2.78;;;;;;;2.15;68.10;93451.19;5042408;28;20025;-35
2022/02/03 14:29:23;;;;;;;12.02;6.47;;;;;;;2.10;68.28;93462.09;5042342;28;20017;-35
2022/02/03 14:31:57;;;;;;;17.02;9.27;;;;;;;2.16;68.96;93457.41;5043293;28;20155;-36
2022/02/03 14:34:28;;;;;;;13.68;6.82;;;;;;;2.23;70.07;93467.81;5040029;28;20028;-36
2022/02/03 14:37:22;;;;;;;12.48;7.22;;;;;;;2.21;71.71;93470.25;5040770;28;20025;-35
2022/02/03 14:42:44;;;;;;;10.07;5.30;;;;;;;2.36;72.10;93461.88;5031945;28;20033;-35
2022/02/03 14:45:12;;;;;;;5.68;4.20;;;;;;;2.43;72.00;93453.91;5023612;28;20496;-35
2022/02/03 14:47:39;;;;;;;11.33;6.70;;;;;;;2.59;71.63;93457.88;5041531;28;20116;-35
2022/02/03 14:50:05;;;;;;;9.23;7.13;;;;;;;2.79;70.81;93446.72;5038963;28;20029;-36
2022/02/03 14:52:43;;;;;;;9.88;6.18;;;;;;;2.89;70.08;93451.41;5039009;28;20035;-36
2022/02/03 14:58:13;;;;;;;7.47;5.43;;;;;;;2.79;69.47;93452.16;5041485;28;20027;-36
2022/02/03 15:00:39;;;;;;;6.85;5.45;;;;;;;2.81;69.83;93452.41;5031230;28;20021;-35
2022/02/03 15:03:05;;;;;;;10.63;7.93;;;;;;;2.71;68.84;93451.16;5047739;28;20103;-36
2022/02/03 15:05:37;;;;;;;7.70;5.10;;;;;;;2.56;68.72;93459.63;5049965;28;20074;-35
2022/02/03 15:08:04;;;;;;;5.60;4.05;;;;;;;2.51;67.96;93460.38;5048948;28;20056;-35
2022/02/03 15:13:15;;;;;;;6.80;5.20;;;;;;;2.41;67.43;93467.31;5048739;28;20048;-35
2022/02/03 15:15:41;;;;;;;6.70;4.20;;;;;;;2.37;67.17;93468.78;5048435;28;20039;-36
2022/02/03 15:18:10;;;;;;;5.50;3.60;;;;;;;2.25;67.31;93476.22;5048192;28;20032;-36
2022/02/03 15:20:39;;;;;;;6.57;4.53;;;;;;;2.14;67.77;93482.38;5031079;28;20056;-36
2022/02/03 15:23:06;;;;;;;9.68;6.47;;;;;;;2.08;66.76;93489.09;5048817;28;20442;-36
2022/02/03 15:25:32;;;;;;;7.55;4.25;;;;;;;2.07;67.24;93482.88;5047035;28;20024;-35
2022/02/03 15:27:58;;;;;;;4.53;3.90;;;;;;;2.02;67.46;93485.59;5035749;28;20027;-35
2022/02/03 15:30:24;;;;;;;5.38;3.42;;;;;;;2.08;67.22;93483.63;5038833;28;20083;-35
2022/02/03 15:32:50;;;;;;;8.77;5.53;;;;;;;2.03;66.47;93487.84;5036793;28;20104;-36
2022/02/03 15:37:58;;;;;;;8.23;5.90;;;;;;;2.13;67.76;93493.78;5030830;28;20119;-35
2022/02/03 15:40:26;;;;;;;13.13;8.00;;;;;;;2.29;67.50;93501.25;5038807;28;20522;-35
2022/02/03 15:45:33;;;;;;;11.43;8.93;;;;;;;2.22;66.98;93507.91;5029675;28;20034;-36
2022/02/03 15:48:04;;;;;;;7.80;5.90;;;;;;;2.15;65.57;93507.66;5038697;28;20029;-35
2022/02/03 15:50:55;;;;;;;13.52;8.32;;;;;;;1.99;66.28;93511.09;5037258;28;20039;-35
2022/02/03 16:01:38;;;;;;;10.98;6.93;;;;;;;1.64;65.37;93521.63;5042001;28;20040;-35
2022/02/03 16:17:36;;;;;;;10.57;7.80;;;;;;;1.57;65.30;93554.72;5028135;28;20033;-35
2022/02/03 16:20:11;;;;;;;10.73;7.65;;;;;;;1.58;65.76;93562.44;5027698;28;20055;-35
2022/02/03 16:52:44;;;;;;;5.43;3.03;;;;;;;0.95;60.00;93620.88;5051352;28;20036;-35
2022/02/03 16:55:14;;;;;;;3.35;2.70;;;;;;;0.85;59.28;93603.97;5050761;28;20087;-35
2022/02/03 16:57:40;;;;;;;3.63;3.17;;;;;;;0.92;58.70;93616.38;5036859;28;20025;-35
2022/02/03 17:00:08;;;;;;;3.30;2.47;;;;;;;0.82;58.71;93623.97;5030779;28;20587;-35
2022/02/03 17:02:34;;;;;;;3.13;2.28;;;;;;;0.84;59.08;93626.97;5028206;28;20030;-35
2022/02/03 17:05:01;;;;;;;3.95;3.10;;;;;;;0.81;58.84;93630.63;5031391;28;20036;-35
2022/02/03 17:07:27;;;;;;;4.45;3.05;;;;;;;0.77;59.00;93630.09;5030874;28;20032;-35
2022/02/03 17:09:55;;;;;;;3.78;2.97;;;;;;;0.75;57.87;93635.28;5033381;28;20033;-35
2022/02/03 17:12:20;;;;;;;3.50;2.47;;;;;;;0.62;57.69;93634.91;5038815;28;20125;-36
2022/02/03 17:14:46;;;;;;;5.18;3.90;;;;;;;0.69;57.74;93634.50;5047017;28;20117;-35
2022/02/03 17:17:12;;;;;;;21.58;9.95;;;;;;;0.57;57.56;93630.91;5050558;28;20031;-35
2022/02/03 17:19:39;;;;;;;14.02;7.00;;;;;;;0.55;56.43;93629.91;5050414;28;20017;-35
2022/02/03 17:22:06;;;;;;;9.25;4.55;;;;;;;0.53;56.75;93635.81;5050411;28;20017;-35
2022/02/03 17:24:34;;;;;;;9.18;6.00;;;;;;;0.59;56.43;93635.88;5050702;28;20064;-35
2022/02/03 17:27:07;;;;;;;8.32;4.60;;;;;;;0.41;55.60;93647.78;5041515;28;20029;-35
2022/02/03 18:07:36;;;;;;;11.40;6.67;;;;;;;0.15;55.00;93682.34;5029982;28;20120;-35
2022/02/03 18:31:05;;;;;;;17.45;10.60;;;;;;;0.31;55.25;93698.06;5049769;28;20044;-35
2022/02/03 18:52:33;;;;;;;7.90;5.50;;;;;;;0.34;54.81;93718.09;4967662;28;20070;-35
2022/02/03 18:55:29;;;;;;;8.35;5.90;;;;;;;0.36;55.96;93721.06;4967519;28;20066;-35
2022/02/03 18:57:57;;;;;;;8.40;4.60;;;;;;;0.48;55.94;93737.00;5009752;28;20124;-35
2022/02/03 19:00:48;;;;;;;6.93;3.13;;;;;;;0.49;55.75;93733.09;5028689;28;20022;-35
2022/02/03 19:09:25;;;;;;;10.70;6.35;;;;;;;0.48;56.44;93745.16;5033380;28;20433;-35
2022/02/03 20:07:31;;;;;;;13.63;8.13;;;;;;;0.57;57.24;93733.41;5028693;28;20026;-35
2022/02/03 20:10:24;;;;;;;12.00;7.82;;;;;;;0.47;57.69;93734.78;5029585;28;20538;-34
2022/02/03 20:12:42;;;;;;;12.40;8.45;;;;;;;0.59;58.50;93739.09;5028782;28;20531;-35
2022/02/03 20:15:10;;;;;;;15.98;9.27;;;;;;;0.55;57.88;93742.03;5030133;28;20053;-35
2022/02/03 20:17:35;;;;;;;13.00;7.35;;;;;;;0.48;58.15;93741.69;5030311;28;20079;-35
2022/02/03 20:20:01;;;;;;;8.48;6.93;;;;;;;0.22;59.85;93730.03;5030316;28;20026;-35
2022/02/03 20:22:32;;;;;;;10.85;7.90;;;;;;;-0.01;61.31;93740.63;5046995;28;20106;-35
2022/02/03 20:24:57;;;;;;;19.67;13.13;;;;;;;-0.06;61.73;93743.25;5031310;28;20030;-35
2022/02/03 20:27:23;;;;;;;15.48;10.40;;;;;;;-0.13;62.83;93741.66;5033693;28;20024;-35
2022/02/03 20:29:49;;;;;;;17.63;10.65;;;;;;;-0.30;64.39;93740.69;5034255;28;20060;-34
2022/02/03 20:32:17;;;;;;;14.52;9.32;;;;;;;-0.49;66.08;93753.00;5034161;28;20030;-35
2022/02/03 20:34:43;;;;;;;15.00;10.05;;;;;;;-0.74;67.52;93745.44;5033747;28;20025;-35
2022/02/03 20:37:08;;;;;;;19.23;10.45;;;;;;;-0.80;68.06;93745.34;5033818;28;20029;-34
2022/02/03 20:39:34;;;;;;;17.23;10.32;;;;;;;-0.88;68.60;93740.78;5033741;28;20017;-35
2022/02/03 20:41:59;;;;;;;22.13;12.35;;;;;;;-0.78;68.27;93750.31;5033786;28;20037;-35
2022/02/03 20:44:25;;;;;;;25.27;15.88;;;;;;;-0.86;68.51;93746.47;5033750;28;20021;-34
2022/02/03 20:46:50;;;;;;;16.85;11.30;;;;;;;-0.89;68.69;93745.44;5033891;28;20026;-35
2022/02/03 20:49:16;;;;;;;19.55;13.10;;;;;;;-0.91;68.71;93741.72;5033672;28;20048;-34
2022/02/03 20:51:43;;;;;;;18.33;10.95;;;;;;;-0.91;68.69;93742.44;5033527;28;20100;-34
2022/02/03 20:54:09;;;;;;;14.85;10.65;;;;;;;-0.86;68.61;93739.09;5033463;28;20029;-35
2022/02/03 20:56:36;;;;;;;16.48;10.40;;;;;;;-0.82;68.55;93744.31;5033633;28;20056;-34
2022/02/03 20:59:05;;;;;;;23.42;13.85;;;;;;;-0.79;68.54;93752.28;5033714;28;20049;-35
2022/02/03 21:01:34;;;;;;;18.48;12.05;;;;;;;-0.84;68.55;93758.34;5033843;28;20025;-35
2022/02/03 21:04:06;;;;;;;19.58;12.82;;;;;;;-1.00;69.41;93744.53;5033356;28;20024;-34
2022/02/03 21:06:32;;;;;;;18.63;10.23;;;;;;;-1.16;70.10;93742.25;5033439;28;20025;-34
2022/02/03 21:08:57;;;;;;;20.45;12.07;;;;;;;-1.24;70.88;93741.16;5033192;28;20091;-35
2022/02/03 21:11:23;;;;;;;18.67;11.95;;;;;;;-1.29;71.15;93744.50;5033160;28;20049;-34
2022/02/03 21:13:49;;;;;;;19.40;12.30;;;;;;;-1.28;71.05;93735.16;5033412;28;20444;-35
2022/02/03 21:16:15;;;;;;;22.85;11.57;;;;;;;-1.36;71.56;93740.19;5032179;28;20055;-35
2022/02/03 21:18:43;;;;;;;20.83;12.63;;;;;;;-1.39;71.24;93741.13;5033061;28;20025;-34
2022/02/03 21:21:09;;;;;;;18.52;12.10;;;;;;;-1.46;71.91;93738.78;5033302;28;20388;-35
2022/02/03 21:23:35;;;;;;;27.30;15.15;;;;;;;-1.28;71.21;93741.34;5033267;28;20487;-35
2022/02/03 21:26:02;;;;;;;17.15;12.55;;;;;;;-1.42;71.31;93752.13;5039572;28;20106;-34
2022/02/03 21:28:35;;;;;;;25.95;16.17;;;;;;;-1.57;72.30;93763.69;5048204;28;20052;-34
2022/02/03 21:31:04;;;;;;;23.38;12.45;;;;;;;-1.47;71.61;93761.66;5042784;28;20029;-34
2022/02/03 21:33:33;;;;;;;16.00;11.13;;;;;;;-1.35;71.39;93757.94;5041498;28;20026;-35
2022/02/03 21:36:10;;;;;;;25.88;13.15;;;;;;;-1.29;70.53;93758.03;5047383;28;20036;-35
2022/02/03 21:38:39;;;;;;;21.65;11.80;;;;;;;-1.40;71.08;93760.53;5042216;28;20052;-34
2022/02/03 21:41:06;;;;;;;17.35;9.60;;;;;;;-1.21;70.12;93761.91;5035169;28;20029;-35
2022/02/03 21:43:31;;;;;;;17.63;11.73;;;;;;;-1.57;70.77;93774.53;5032969;28;20026;-34
2022/02/03 21:45:57;;;;;;;20.75;13.68;;;;;;;-1.62;71.39;93774.41;5032807;28;20450;-35
2022/02/03 21:48:23;;;;;;;16.20;11.65;;;;;;;-1.97;72.26;93747.13;5032971;28;20032;-34
2022/02/03 21:50:49;;;;;;;23.60;12.07;;;;;;;-1.60;71.10;93770.03;5043100;28;20013;-34
2022/02/03 21:53:25;;;;;;;17.75;11.25;;;;;;;-1.64;71.86;93766.00;5035362;28;20029;-35
2022/02/03 21:55:52;;;;;;;16.50;10.77;;;;;;;-1.57;70.85;93776.47;5032723;28;20018;-34
2022/02/03 21:58:17;;;;;;;19.88;12.57;;;;;;;-2.00;71.78;93769.72;5046201;28;20033;-34
2022/02/03 22:00:43;;;;;;;20.25;12.63;;;;;;;-2.03;71.59;93769.84;5040768;28;20047;-35
2022/02/03 22:03:09;;;;;;;18.23;10.52;;;;;;;-1.89;71.54;93774.59;5037933;28;20025;-35
2022/02/03 22:05:35;;;;;;;19.30;11.18;;;;;;;-1.79;71.74;93767.91;5041749;28;20397;-34
2022/02/03 22:08:01;;;;;;;16.42;10.52;;;;;;;-1.76;71.97;93775.88;5042997;28;20024;-34
2022/02/03 22:10:27;;;;;;;16.65;10.45;;;;;;;-1.77;71.74;93766.25;5046878;28;20387;-34
2022/02/03 22:12:52;;;;;;;14.25;9.57;;;;;;;-1.90;73.22;93763.03;5039094;28;20122;-34
2022/02/03 22:15:19;;;;;;;19.25;12.02;;;;;;;-1.89;73.00;93763.78;5042586;28;20021;-34
2022/02/03 22:17:45;;;;;;;17.85;11.32;;;;;;;-1.83;72.46;93759.22;5041583;28;20719;-34
2022/02/03 22:20:53;;;;;;;19.23;12.27;;;;;;;-1.88;72.73;93755.19;5040714;28;20076;-34
2022/02/03 22:38:57;;;;;;;19.60;11.32;;;;;;;-2.55;73.67;93749.53;5049363;28;20166;-35
2022/02/03 22:44:22;;;;;;;21.83;11.07;;;;;;;-2.35;73.19;93757.88;5049035;28;20063;-34
2022/02/03 22:49:31;;;;;;;21.73;12.40;;;;;;;-2.89;73.56;93761.53;5051397;28;20032;-34
2022/02/03 22:51:57;;;;;;;28.08;14.23;;;;;;;-2.80;73.58;93753.41;5050892;28;20495;-34
2022/02/03 22:54:22;;;;;;;26.15;14.93;;;;;;;-2.63;73.04;93768.06;5042525;28;20061;-35
2022/02/03 22:56:48;;;;;;;28.27;16.38;;;;;;;-2.50;73.49;93767.84;5041381;28;20037;-36
2022/02/03 23:01:39;;;;;;;19.75;10.60;;;;;;;-2.44;73.36;93760.63;5044741;28;20041;-35
2022/02/03 23:04:05;;;;;;;20.48;11.18;;;;;;;-2.50;73.65;93760.50;5038581;28;20017;-35